sensor_id;sensor_type;location;lat;lon;timestamp;pressure;altitude;pressure_sealevel;temperature;humidity
77161;BME280;66135;0.000;0.000;2023-03-03T00:01:05;102218.47;;;16.84;51.14
77161;BME280;66135;0.000;0.000;2023-03-03T00:03:31;102225.84;;;16.82;50.92
77161;BME280;66135;0.000;0.000;2023-03-03T00:05:57;102221.31;;;16.83;50.38
77161;BME280;66135;0.000;0.000;2023-03-03T00:08:23;102225.00;;;16.82;50.86
77161;BME280;66135;0.000;0.000;2023-03-03T00:10:49;102223.41;;;16.79;50.60
77161;BME280;66135;0.000;0.000;2023-03-03T00:13:20;102225.25;;;16.79;50.76
77161;BME280;66135;0.000;0.000;2023-03-03T00:15:46;102228.22;;;16.76;50.84
77161;BME280;66135;0.000;0.000;2023-03-03T00:18:25;102222.97;;;16.74;50.77
77161;BME280;66135;0.000;0.000;2023-03-03T00:20:55;102228.50;;;16.73;50.83
77161;BME280;66135;0.000;0.000;2023-03-03T00:25:57;102226.78;;;16.72;50.61
77161;BME280;66135;0.000;0.000;2023-03-03T00:28:31;102237.59;;;16.72;50.88
77161;BME280;66135;0.000;0.000;2023-03-03T00:31:00;102233.31;;;16.69;50.67
77161;BME280;66135;0.000;0.000;2023-03-03T00:35:56;102239.97;;;16.65;50.57
77161;BME280;66135;0.000;0.000;2023-03-03T00:38:22;102242.81;;;16.64;50.70
77161;BME280;66135;0.000;0.000;2023-03-03T00:40:48;102245.66;;;16.62;50.71
77161;BME280;66135;0.000;0.000;2023-03-03T00:45:54;102242.09;;;16.62;50.81
77161;BME280;66135;0.000;0.000;2023-03-03T00:51:19;102247.78;;;16.59;50.93
77161;BME280;66135;0.000;0.000;2023-03-03T00:53:48;102251.34;;;16.59;51.04
77161;BME280;66135;0.000;0.000;2023-03-03T00:56:14;102251.47;;;16.58;50.98
77161;BME280;66135;0.000;0.000;2023-03-03T00:58:40;102252.44;;;16.57;50.87
77161;BME280;66135;0.000;0.000;2023-03-03T01:01:05;102257.88;;;16.57;50.68
77161;BME280;66135;0.000;0.000;2023-03-03T01:03:30;102250.75;;;16.56;50.91
77161;BME280;66135;0.000;0.000;2023-03-03T01:05:56;102260.84;;;16.54;51.04
77161;BME280;66135;0.000;0.000;2023-03-03T01:08:22;102263.91;;;16.49;51.34
77161;BME280;66135;0.000;0.000;2023-03-03T01:10:50;102266.38;;;16.52;51.19
77161;BME280;66135;0.000;0.000;2023-03-03T01:13:18;102263.06;;;16.49;50.98
77161;BME280;66135;0.000;0.000;2023-03-03T01:15:44;102268.34;;;16.50;50.83
77161;BME280;66135;0.000;0.000;2023-03-03T01:18:11;102261.09;;;16.51;50.83
77161;BME280;66135;0.000;0.000;2023-03-03T01:20:37;102261.22;;;16.49;50.97
77161;BME280;66135;0.000;0.000;2023-03-03T01:23:03;102264.91;;;16.48;51.11
77161;BME280;66135;0.000;0.000;2023-03-03T01:25:29;102263.41;;;16.44;51.21
77161;BME280;66135;0.000;0.000;2023-03-03T01:27:54;102264.28;;;16.45;51.24
77161;BME280;66135;0.000;0.000;2023-03-03T01:30:20;102268.00;;;16.44;51.05
77161;BME280;66135;0.000;0.000;2023-03-03T01:32:46;102266.38;;;16.41;50.97
77161;BME280;66135;0.000;0.000;2023-03-03T01:35:11;102271.94;;;16.40;51.06
77161;BME280;66135;0.000;0.000;2023-03-03T01:37:37;102277.34;;;16.40;51.04
77161;BME280;66135;0.000;0.000;2023-03-03T01:40:04;102260.25;;;16.39;50.98
77161;BME280;66135;0.000;0.000;2023-03-03T01:42:31;102268.34;;;16.39;50.97
77161;BME280;66135;0.000;0.000;2023-03-03T01:50:59;102277.47;;;16.38;50.77
77161;BME280;66135;0.000;0.000;2023-03-03T01:53:40;102284.84;;;16.36;50.72
77161;BME280;66135;0.000;0.000;2023-03-03T01:56:23;102285.81;;;16.35;50.97
77161;BME280;66135;0.000;0.000;2023-03-03T01:59:08;102285.13;;;16.33;50.91
77161;BME280;66135;0.000;0.000;2023-03-03T02:01:52;102283.38;;;16.32;51.13
77161;BME280;66135;0.000;0.000;2023-03-03T02:04:17;102284.25;;;16.33;50.99
77161;BME280;66135;0.000;0.000;2023-03-03T02:06:48;102266.56;;;16.29;51.04
77161;BME280;66135;0.000;0.000;2023-03-03T02:09:42;102278.38;;;16.28;51.11
77161;BME280;66135;0.000;0.000;2023-03-03T02:12:11;102277.38;;;16.29;51.31
77161;BME280;66135;0.000;0.000;2023-03-03T02:14:38;102262.28;;;16.26;50.99
77161;BME280;66135;0.000;0.000;2023-03-03T02:17:03;102265.94;;;16.25;50.81
77161;BME280;66135;0.000;0.000;2023-03-03T02:22:14;102276.03;;;16.23;51.03
77161;BME280;66135;0.000;0.000;2023-03-03T02:24:47;102272.34;;;16.24;51.05
77161;BME280;66135;0.000;0.000;2023-03-03T02:27:15;102277.03;;;16.22;50.63
77161;BME280;66135;0.000;0.000;2023-03-03T02:29:40;102280.72;;;16.21;50.86
77161;BME280;66135;0.000;0.000;2023-03-03T02:32:05;102276.28;;;16.20;50.85
77161;BME280;66135;0.000;0.000;2023-03-03T02:34:46;102275.31;;;16.21;50.73
77161;BME280;66135;0.000;0.000;2023-03-03T02:37:11;102285.16;;;16.22;50.88
77161;BME280;66135;0.000;0.000;2023-03-03T02:39:37;102282.56;;;16.21;50.82
77161;BME280;66135;0.000;0.000;2023-03-03T02:42:08;102281.84;;;16.19;50.68
77161;BME280;66135;0.000;0.000;2023-03-03T02:44:37;102272.13;;;16.16;51.03
77161;BME280;66135;0.000;0.000;2023-03-03T02:47:03;102290.22;;;16.16;50.76
77161;BME280;66135;0.000;0.000;2023-03-03T02:49:30;102290.34;;;16.14;50.79
77161;BME280;66135;0.000;0.000;2023-03-03T02:51:57;102277.66;;;16.15;50.98
77161;BME280;66135;0.000;0.000;2023-03-03T02:54:24;102285.78;;;16.15;50.82
77161;BME280;66135;0.000;0.000;2023-03-03T02:56:50;102286.91;;;16.12;50.83
77161;BME280;66135;0.000;0.000;2023-03-03T02:59:16;102274.34;;;16.11;50.81
77161;BME280;66135;0.000;0.000;2023-03-03T03:01:42;102279.75;;;16.11;50.69
77161;BME280;66135;0.000;0.000;2023-03-03T03:04:17;102282.47;;;16.11;50.84
77161;BME280;66135;0.000;0.000;2023-03-03T03:06:43;102281.63;;;16.11;50.67
77161;BME280;66135;0.000;0.000;2023-03-03T03:09:10;102283.59;;;16.09;50.75
77161;BME280;66135;0.000;0.000;2023-03-03T03:11:36;102282.00;;;16.06;50.81
77161;BME280;66135;0.000;0.000;2023-03-03T03:14:02;102292.94;;;16.05;51.12
77161;BME280;66135;0.000;0.000;2023-03-03T03:16:28;102286.66;;;16.04;50.87
77161;BME280;66135;0.000;0.000;2023-03-03T03:18:54;102281.25;;;16.04;51.03
77161;BME280;66135;0.000;0.000;2023-03-03T03:21:20;102291.22;;;16.04;50.88
77161;BME280;66135;0.000;0.000;2023-03-03T03:23:45;102287.78;;;16.02;51.01
77161;BME280;66135;0.000;0.000;2023-03-03T03:26:11;102289.50;;;16.03;50.71
77161;BME280;66135;0.000;0.000;2023-03-03T03:28:36;102293.19;;;16.02;50.85
77161;BME280;66135;0.000;0.000;2023-03-03T03:31:03;102300.44;;;16.01;51.00
77161;BME280;66135;0.000;0.000;2023-03-03T03:33:29;102295.16;;;16.00;50.96
77161;BME280;66135;0.000;0.000;2023-03-03T03:35:56;102299.56;;;16.01;50.82
77161;BME280;66135;0.000;0.000;2023-03-03T03:38:22;102299.69;;;15.99;51.03
77161;BME280;66135;0.000;0.000;2023-03-03T03:40:48;102304.13;;;16.00;50.81
77161;BME280;66135;0.000;0.000;2023-03-03T03:43:13;102314.34;;;15.97;50.99
77161;BME280;66135;0.000;0.000;2023-03-03T03:45:41;102303.53;;;15.97;50.78
77161;BME280;66135;0.000;0.000;2023-03-03T03:48:07;102294.41;;;15.98;50.85
77161;BME280;66135;0.000;0.000;2023-03-03T03:50:32;102304.63;;;15.94;50.80
77161;BME280;66135;0.000;0.000;2023-03-03T03:52:58;102305.63;;;15.93;51.06
77161;BME280;66135;0.000;0.000;2023-03-03T03:55:23;102305.75;;;15.92;50.87
77161;BME280;66135;0.000;0.000;2023-03-03T03:57:48;102306.59;;;15.92;51.00
77161;BME280;66135;0.000;0.000;2023-03-03T04:00:14;102310.16;;;15.93;50.87
77161;BME280;66135;0.000;0.000;2023-03-03T04:02:40;102309.41;;;15.91;50.94
77161;BME280;66135;0.000;0.000;2023-03-03T04:05:06;102305.84;;;15.90;51.02
77161;BME280;66135;0.000;0.000;2023-03-03T04:07:32;102308.69;;;15.89;50.85
77161;BME280;66135;0.000;0.000;2023-03-03T04:09:57;102316.66;;;15.90;50.89
77161;BME280;66135;0.000;0.000;2023-03-03T04:12:23;102322.06;;;15.90;50.81
77161;BME280;66135;0.000;0.000;2023-03-03T04:14:48;102308.69;;;15.89;51.00
77161;BME280;66135;0.000;0.000;2023-03-03T04:17:21;102310.53;;;15.88;50.90
77161;BME280;66135;0.000;0.000;2023-03-03T04:19:47;102313.34;;;15.87;50.92
77161;BME280;66135;0.000;0.000;2023-03-03T04:22:12;102311.75;;;15.84;51.02
77161;BME280;66135;0.000;0.000;2023-03-03T04:24:39;102308.19;;;15.84;50.77
77161;BME280;66135;0.000;0.000;2023-03-03T04:27:04;102315.44;;;15.83;50.88
77161;BME280;66135;0.000;0.000;2023-03-03T04:29:30;102316.31;;;15.84;51.10
77161;BME280;66135;0.000;0.000;2023-03-03T04:31:55;102319.13;;;15.82;51.13
77161;BME280;66135;0.000;0.000;2023-03-03T04:34:21;102321.97;;;15.81;50.83
77161;BME280;66135;0.000;0.000;2023-03-03T04:36:46;102310.28;;;15.80;51.46
77161;BME280;66135;0.000;0.000;2023-03-03T04:39:12;102315.81;;;15.78;51.22
77161;BME280;66135;0.000;0.000;2023-03-03T04:41:37;102311.28;;;15.79;51.04
77161;BME280;66135;0.000;0.000;2023-03-03T04:44:03;102308.81;;;15.76;51.08
77161;BME280;66135;0.000;0.000;2023-03-03T04:46:29;102314.13;;;15.77;51.08
77161;BME280;66135;0.000;0.000;2023-03-03T04:48:54;102316.06;;;15.75;51.15
77161;BME280;66135;0.000;0.000;2023-03-03T04:51:21;102311.75;;;15.73;51.32
77161;BME280;66135;0.000;0.000;2023-03-03T04:53:47;102327.00;;;15.74;51.32
77161;BME280;66135;0.000;0.000;2023-03-03T04:56:12;102318.91;;;15.74;51.08
77161;BME280;66135;0.000;0.000;2023-03-03T04:58:38;102329.84;;;15.72;51.02
77161;BME280;66135;0.000;0.000;2023-03-03T05:01:04;102329.72;;;15.74;51.05
77161;BME280;66135;0.000;0.000;2023-03-03T05:03:29;102320.00;;;15.71;50.79
77161;BME280;66135;0.000;0.000;2023-03-03T05:05:54;102328.09;;;15.71;50.85
77161;BME280;66135;0.000;0.000;2023-03-03T05:08:20;102329.09;;;15.70;50.81
77161;BME280;66135;0.000;0.000;2023-03-03T05:10:46;102313.72;;;15.71;51.27
77161;BME280;66135;0.000;0.000;2023-03-03T05:13:15;102333.75;;;15.68;51.05
77161;BME280;66135;0.000;0.000;2023-03-03T05:15:41;102329.22;;;15.69;51.34
77161;BME280;66135;0.000;0.000;2023-03-03T05:18:07;102329.22;;;15.69;50.90
77161;BME280;66135;0.000;0.000;2023-03-03T05:20:33;102335.72;;;15.66;51.02
77161;BME280;66135;0.000;0.000;2023-03-03T05:22:58;102340.25;;;15.66;51.15
77161;BME280;66135;0.000;0.000;2023-03-03T05:25:25;102321.22;;;15.67;51.06
77161;BME280;66135;0.000;0.000;2023-03-03T05:27:51;102337.56;;;15.66;51.19
77161;BME280;66135;0.000;0.000;2023-03-03T05:30:16;102343.22;;;15.63;51.38
77161;BME280;66135;0.000;0.000;2023-03-03T05:32:42;102340.63;;;15.61;51.19
77161;BME280;66135;0.000;0.000;2023-03-03T05:35:08;102337.06;;;15.61;51.20
77161;BME280;66135;0.000;0.000;2023-03-03T05:37:33;102337.19;;;15.59;51.54
77161;BME280;66135;0.000;0.000;2023-03-03T05:39:59;102338.19;;;15.58;51.66
77161;BME280;66135;0.000;0.000;2023-03-03T05:42:24;102340.63;;;15.61;51.54
77161;BME280;66135;0.000;0.000;2023-03-03T05:44:50;102338.81;;;15.62;51.98
77161;BME280;66135;0.000;0.000;2023-03-03T05:47:15;102335.34;;;15.60;51.38
77161;BME280;66135;0.000;0.000;2023-03-03T05:49:40;102335.22;;;15.61;51.30
77161;BME280;66135;0.000;0.000;2023-03-03T05:52:06;102332.53;;;15.61;51.62
77161;BME280;66135;0.000;0.000;2023-03-03T05:54:33;102335.22;;;15.61;51.41
77161;BME280;66135;0.000;0.000;2023-03-03T05:56:58;102335.34;;;15.60;51.50
77161;BME280;66135;0.000;0.000;2023-03-03T05:59:24;102339.75;;;15.61;51.50
77161;BME280;66135;0.000;0.000;2023-03-03T06:01:49;102347.88;;;15.61;51.53
77161;BME280;66135;0.000;0.000;2023-03-03T06:04:15;102350.81;;;15.58;51.63
77161;BME280;66135;0.000;0.000;2023-03-03T06:06:40;102346.28;;;15.58;51.66
77161;BME280;66135;0.000;0.000;2023-03-03T06:09:06;102348.72;;;15.61;51.28
77161;BME280;66135;0.000;0.000;2023-03-03T06:11:31;102352.06;;;15.65;50.96
77161;BME280;66135;0.000;0.000;2023-03-03T06:13:57;102359.03;;;15.67;50.95
77161;BME280;66135;0.000;0.000;2023-03-03T06:16:22;102354.16;;;15.72;50.65
77161;BME280;66135;0.000;0.000;2023-03-03T06:18:48;102353.53;;;15.80;50.86
77161;BME280;66135;0.000;0.000;2023-03-03T06:21:13;102358.56;;;15.85;50.67
77161;BME280;66135;0.000;0.000;2023-03-03T06:23:39;102358.31;;;15.88;50.92
77161;BME280;66135;0.000;0.000;2023-03-03T06:26:04;102362.59;;;15.90;50.87
77161;BME280;66135;0.000;0.000;2023-03-03T06:28:30;102367.66;;;15.95;50.97
77161;BME280;66135;0.000;0.000;2023-03-03T06:30:55;102367.53;;;15.96;50.85
77161;BME280;66135;0.000;0.000;2023-03-03T06:33:21;102369.84;;;16.01;52.34
77161;BME280;66135;0.000;0.000;2023-03-03T06:35:51;102370.84;;;16.00;50.99
77161;BME280;66135;0.000;0.000;2023-03-03T06:38:18;102378.81;;;16.01;52.27
77161;BME280;66135;0.000;0.000;2023-03-03T06:40:44;102376.72;;;16.05;51.90
77161;BME280;66135;0.000;0.000;2023-03-03T06:43:10;102390.72;;;16.10;51.69
77161;BME280;66135;0.000;0.000;2023-03-03T06:45:36;102398.69;;;16.11;51.76
77161;BME280;66135;0.000;0.000;2023-03-03T06:48:01;102395.03;;;16.12;51.77
77161;BME280;66135;0.000;0.000;2023-03-03T06:50:27;102393.06;;;16.14;51.76
77161;BME280;66135;0.000;0.000;2023-03-03T06:55:34;102407.69;;;16.12;51.53
77161;BME280;66135;0.000;0.000;2023-03-03T06:58:00;102406.59;;;16.14;51.95
77161;BME280;66135;0.000;0.000;2023-03-03T07:00:26;102406.59;;;16.14;51.81
77161;BME280;66135;0.000;0.000;2023-03-03T07:03:07;102396.75;;;16.13;52.31
77161;BME280;66135;0.000;0.000;2023-03-03T07:05:32;102401.19;;;16.14;52.15
77161;BME280;66135;0.000;0.000;2023-03-03T07:07:59;102404.09;;;16.11;52.52
77161;BME280;66135;0.000;0.000;2023-03-03T07:10:27;102400.66;;;16.09;51.18
77161;BME280;66135;0.000;0.000;2023-03-03T07:13:16;102415.91;;;16.10;52.16
77161;BME280;66135;0.000;0.000;2023-03-03T07:15:42;102412.00;;;16.14;52.39
77161;BME280;66135;0.000;0.000;2023-03-03T07:20:54;102408.16;;;16.17;52.48
77161;BME280;66135;0.000;0.000;2023-03-03T07:23:31;102416.16;;;16.18;53.23
77161;BME280;66135;0.000;0.000;2023-03-03T07:26:19;102412.47;;;16.19;53.12
77161;BME280;66135;0.000;0.000;2023-03-03T07:31:26;102417.75;;;16.21;53.30
77161;BME280;66135;0.000;0.000;2023-03-03T07:33:53;102421.34;;;16.21;53.68
77161;BME280;66135;0.000;0.000;2023-03-03T07:36:30;102419.59;;;16.20;53.84
77161;BME280;66135;0.000;0.000;2023-03-03T07:39:01;102425.00;;;16.20;53.77
77161;BME280;66135;0.000;0.000;2023-03-03T07:41:29;102426.75;;;16.21;53.83
77161;BME280;66135;0.000;0.000;2023-03-03T07:44:12;102432.84;;;16.23;53.97
77161;BME280;66135;0.000;0.000;2023-03-03T07:46:45;102429.31;;;16.23;54.08
77161;BME280;66135;0.000;0.000;2023-03-03T07:49:34;102432.03;;;16.23;54.12
77161;BME280;66135;0.000;0.000;2023-03-03T07:54:45;102430.16;;;16.23;53.60
77161;BME280;66135;0.000;0.000;2023-03-03T07:59:51;102432.97;;;16.22;54.02
77161;BME280;66135;0.000;0.000;2023-03-03T08:07:51;102446.28;;;16.25;54.33
77161;BME280;66135;0.000;0.000;2023-03-03T08:10:34;102446.16;;;16.26;54.35
77161;BME280;66135;0.000;0.000;2023-03-03T08:13:01;102444.28;;;16.27;54.23
77161;BME280;66135;0.000;0.000;2023-03-03T08:16:00;102454.13;;;16.28;54.33
77161;BME280;66135;0.000;0.000;2023-03-03T08:21:02;102455.97;;;16.27;54.52
77161;BME280;66135;0.000;0.000;2023-03-03T08:23:28;102450.44;;;16.29;54.57
77161;BME280;66135;0.000;0.000;2023-03-03T08:25:53;102457.59;;;16.30;54.76
77161;BME280;66135;0.000;0.000;2023-03-03T08:28:19;102468.28;;;16.31;54.83
77161;BME280;66135;0.000;0.000;2023-03-03T08:30:45;102468.28;;;16.31;54.81
77161;BME280;66135;0.000;0.000;2023-03-03T08:33:11;102467.41;;;16.31;54.42
77161;BME280;66135;0.000;0.000;2023-03-03T08:35:37;102468.41;;;16.30;54.48
77161;BME280;66135;0.000;0.000;2023-03-03T08:38:03;102467.53;;;16.29;54.58
77161;BME280;66135;0.000;0.000;2023-03-03T08:40:30;102463.13;;;16.28;54.71
77161;BME280;66135;0.000;0.000;2023-03-03T08:42:55;102464.69;;;16.31;54.62
77161;BME280;66135;0.000;0.000;2023-03-03T08:45:23;102477.13;;;16.33;54.55
77161;BME280;66135;0.000;0.000;2023-03-03T08:47:48;102473.56;;;16.33;54.77
77161;BME280;66135;0.000;0.000;2023-03-03T08:50:14;102478.09;;;16.32;54.12
77161;BME280;66135;0.000;0.000;2023-03-03T08:52:40;102487.19;;;16.31;54.39
77161;BME280;66135;0.000;0.000;2023-03-03T08:55:05;102488.06;;;16.32;54.40
77161;BME280;66135;0.000;0.000;2023-03-03T08:57:31;102489.03;;;16.31;54.18
77161;BME280;66135;0.000;0.000;2023-03-03T08:59:56;102500.72;;;16.31;54.11
77161;BME280;66135;0.000;0.000;2023-03-03T09:02:22;102501.69;;;16.30;53.92
77161;BME280;66135;0.000;0.000;2023-03-03T09:04:47;102495.44;;;16.30;53.66
77161;BME280;66135;0.000;0.000;2023-03-03T09:07:13;102496.28;;;16.30;53.52
77161;BME280;66135;0.000;0.000;2023-03-03T09:09:38;102491.00;;;16.29;53.40
77161;BME280;66135;0.000;0.000;2023-03-03T09:12:19;102498.28;;;16.28;53.31
77161;BME280;66135;0.000;0.000;2023-03-03T09:14:47;102492.88;;;16.28;53.78
77161;BME280;66135;0.000;0.000;2023-03-03T09:17:32;102500.84;;;16.30;53.72
77161;BME280;66135;0.000;0.000;2023-03-03T09:20:16;102495.31;;;16.31;53.89
77161;BME280;66135;0.000;0.000;2023-03-03T09:22:46;102505.13;;;16.32;53.81
77161;BME280;66135;0.000;0.000;2023-03-03T09:25:32;102502.16;;;16.35;53.90
77161;BME280;66135;0.000;0.000;2023-03-03T09:27:59;102502.91;;;16.37;54.32
77161;BME280;66135;0.000;0.000;2023-03-03T09:32:50;102503.78;;;16.38;54.79
77161;BME280;66135;0.000;0.000;2023-03-03T09:37:56;102510.91;;;16.39;54.03
77161;BME280;66135;0.000;0.000;2023-03-03T09:43:02;102505.75;;;16.36;54.06
77161;BME280;66135;0.000;0.000;2023-03-03T09:54:27;102513.72;;;16.37;53.98
77161;BME280;66135;0.000;0.000;2023-03-03T10:05:21;102505.75;;;16.36;53.74
77161;BME280;66135;0.000;0.000;2023-03-03T10:07:58;102511.03;;;16.37;53.79
77161;BME280;66135;0.000;0.000;2023-03-03T10:11:06;102511.91;;;16.38;53.87
77161;BME280;66135;0.000;0.000;2023-03-03T10:19:40;102518.66;;;16.43;53.34
77161;BME280;66135;0.000;0.000;2023-03-03T10:24:46;102526.78;;;16.43;53.38
77161;BME280;66135;0.000;0.000;2023-03-03T10:27:45;102525.03;;;16.42;53.43
77161;BME280;66135;0.000;0.000;2023-03-03T10:30:19;102536.72;;;16.43;53.41
77161;BME280;66135;0.000;0.000;2023-03-03T10:32:57;102532.19;;;16.43;53.62
77161;BME280;66135;0.000;0.000;2023-03-03T10:35:40;102523.19;;;16.43;53.26
77161;BME280;66135;0.000;0.000;2023-03-03T10:38:30;102525.03;;;16.42;53.36
77161;BME280;66135;0.000;0.000;2023-03-03T10:48:52;102526.91;;;16.42;53.42
77161;BME280;66135;0.000;0.000;2023-03-03T10:54:40;102527.75;;;16.42;53.54
77161;BME280;66135;0.000;0.000;2023-03-03T11:05:35;102513.50;;;16.40;53.33
77161;BME280;66135;0.000;0.000;2023-03-03T11:08:10;102522.34;;;16.42;53.32
77161;BME280;66135;0.000;0.000;2023-03-03T11:11:18;102516.94;;;16.42;53.47
77161;BME280;66135;0.000;0.000;2023-03-03T11:13:56;102515.22;;;16.41;53.28
77161;BME280;66135;0.000;0.000;2023-03-03T11:19:29;102515.22;;;16.41;53.42
77161;BME280;66135;0.000;0.000;2023-03-03T11:32:54;102506.66;;;16.47;53.63
77161;BME280;66135;0.000;0.000;2023-03-03T11:38:50;102507.38;;;16.49;53.71
77161;BME280;66135;0.000;0.000;2023-03-03T11:41:38;102498.91;;;16.54;54.22
77161;BME280;66135;0.000;0.000;2023-03-03T11:44:34;102504.06;;;16.57;54.35
77161;BME280;66135;0.000;0.000;2023-03-03T11:47:08;102500.38;;;16.58;54.67
77161;BME280;66135;0.000;0.000;2023-03-03T11:50:03;102497.53;;;16.59;55.45
77161;BME280;66135;0.000;0.000;2023-03-03T11:58:28;102491.38;;;16.57;55.69
77161;BME280;66135;0.000;0.000;2023-03-03T12:01:02;102499.75;;;16.54;55.86
77161;BME280;66135;0.000;0.000;2023-03-03T12:03:39;102498.16;;;16.52;56.06
77161;BME280;66135;0.000;0.000;2023-03-03T12:11:31;102487.72;;;16.47;55.84
77161;BME280;66135;0.000;0.000;2023-03-03T12:17:03;102494.84;;;16.48;56.02
77161;BME280;66135;0.000;0.000;2023-03-03T12:19:46;102492.13;;;16.48;55.91
77161;BME280;66135;0.000;0.000;2023-03-03T12:22:28;102493.13;;;16.47;55.41
77161;BME280;66135;0.000;0.000;2023-03-03T12:28:33;102483.75;;;16.51;55.59
77161;BME280;66135;0.000;0.000;2023-03-03T12:31:12;102479.34;;;16.50;55.68
77161;BME280;66135;0.000;0.000;2023-03-03T12:34:01;102475.91;;;16.48;55.63
77161;BME280;66135;0.000;0.000;2023-03-03T12:41:31;102469.97;;;16.43;55.51
77161;BME280;66135;0.000;0.000;2023-03-03T12:44:25;102471.19;;;16.39;55.26
77161;BME280;66135;0.000;0.000;2023-03-03T12:57:59;102465.03;;;16.37;54.58
77161;BME280;66135;0.000;0.000;2023-03-03T13:00:39;102464.22;;;16.37;54.18
77161;BME280;66135;0.000;0.000;2023-03-03T13:16:40;102457.19;;;16.34;53.63
77161;BME280;66135;0.000;0.000;2023-03-03T13:22:38;102457.06;;;16.36;53.66
77161;BME280;66135;0.000;0.000;2023-03-03T13:28:45;102454.22;;;16.37;53.54
77161;BME280;66135;0.000;0.000;2023-03-03T13:30:56;102448.81;;;16.37;53.41
77161;BME280;66135;0.000;0.000;2023-03-03T13:33:26;102445.28;;;16.37;53.79
77161;BME280;66135;0.000;0.000;2023-03-03T13:36:08;102445.16;;;16.38;53.28
77161;BME280;66135;0.000;0.000;2023-03-03T13:38:55;102452.28;;;16.39;53.38
77161;BME280;66135;0.000;0.000;2023-03-03T13:41:35;102444.16;;;16.39;53.62
77161;BME280;66135;0.000;0.000;2023-03-03T13:44:24;102450.44;;;16.40;53.28
77161;BME280;66135;0.000;0.000;2023-03-03T13:55:35;102440.22;;;16.43;53.80
77161;BME280;66135;0.000;0.000;2023-03-03T14:01:40;102436.06;;;16.50;53.87
77161;BME280;66135;0.000;0.000;2023-03-03T14:04:00;102435.69;;;16.55;54.34
77161;BME280;66135;0.000;0.000;2023-03-03T14:06:28;102431.13;;;16.55;54.47
77161;BME280;66135;0.000;0.000;2023-03-03T14:09:18;102430.03;;;16.58;54.69
77161;BME280;66135;0.000;0.000;2023-03-03T14:11:59;102429.91;;;16.59;54.81
77161;BME280;66135;0.000;0.000;2023-03-03T14:14:51;102425.34;;;16.60;55.13
77161;BME280;66135;0.000;0.000;2023-03-03T14:17:44;102436.16;;;16.60;54.91
77161;BME280;66135;0.000;0.000;2023-03-03T14:20:19;102422.63;;;16.60;55.12
77161;BME280;66135;0.000;0.000;2023-03-03T14:23:03;102429.66;;;16.62;55.23
77161;BME280;66135;0.000;0.000;2023-03-03T14:28:28;102427.06;;;16.61;55.34
77161;BME280;66135;0.000;0.000;2023-03-03T14:31:15;102416.97;;;16.63;55.66
77161;BME280;66135;0.000;0.000;2023-03-03T14:33:56;102413.28;;;16.64;55.54
77161;BME280;66135;0.000;0.000;2023-03-03T14:36:37;102420.78;;;16.60;55.67
77161;BME280;66135;0.000;0.000;2023-03-03T14:39:33;102416.50;;;16.58;55.68
77161;BME280;66135;0.000;0.000;2023-03-03T14:42:36;102418.22;;;16.59;55.88
77161;BME280;66135;0.000;0.000;2023-03-03T14:45:19;102407.38;;;16.59;55.81
77161;BME280;66135;0.000;0.000;2023-03-03T14:47:45;102403.22;;;16.55;55.34
77161;BME280;66135;0.000;0.000;2023-03-03T14:50:36;102412.31;;;16.54;55.62
77161;BME280;66135;0.000;0.000;2023-03-03T14:53:11;102408.00;;;16.51;55.44
77161;BME280;66135;0.000;0.000;2023-03-03T14:55:41;102401.03;;;16.49;55.35
77161;BME280;66135;0.000;0.000;2023-03-03T14:58:45;102400.28;;;16.47;55.62
77161;BME280;66135;0.000;0.000;2023-03-03T15:06:45;102397.47;;;16.48;55.56
77161;BME280;66135;0.000;0.000;2023-03-03T15:11:56;102385.00;;;16.46;55.70
77161;BME280;66135;0.000;0.000;2023-03-03T15:14:49;102383.41;;;16.43;55.71
77161;BME280;66135;0.000;0.000;2023-03-03T15:17:28;102380.84;;;16.42;55.99
77161;BME280;66135;0.000;0.000;2023-03-03T15:22:59;102378.50;;;16.37;56.72
77161;BME280;66135;0.000;0.000;2023-03-03T15:26:33;102380.38;;;16.37;55.85
77161;BME280;66135;0.000;0.000;2023-03-03T15:59:16;102353.19;;;16.38;56.81
77161;BME280;66135;0.000;0.000;2023-03-03T16:04:19;102354.28;;;16.36;57.08
77161;BME280;66135;0.000;0.000;2023-03-03T16:20:55;102352.94;;;16.30;56.66
77161;BME280;66135;0.000;0.000;2023-03-03T16:23:50;102352.72;;;16.33;56.33
77161;BME280;66135;0.000;0.000;2023-03-03T16:31:52;102352.28;;;16.60;55.14
77161;BME280;66135;0.000;0.000;2023-03-03T16:34:46;102354.56;;;16.75;55.19
77161;BME280;66135;0.000;0.000;2023-03-03T16:40:22;102351.69;;;17.09;54.93
77161;BME280;66135;0.000;0.000;2023-03-03T16:42:58;102357.38;;;17.26;54.67
77161;BME280;66135;0.000;0.000;2023-03-03T16:45:38;102357.16;;;17.39;54.62
77161;BME280;66135;0.000;0.000;2023-03-03T16:56:13;102358.19;;;17.98;54.19
77161;BME280;66135;0.000;0.000;2023-03-03T16:59:02;102362.66;;;18.09;54.07
77161;BME280;66135;0.000;0.000;2023-03-03T17:04:39;102366.28;;;18.28;55.71
77161;BME280;66135;0.000;0.000;2023-03-03T17:10:04;102366.16;;;18.30;56.20
77161;BME280;66135;0.000;0.000;2023-03-03T17:18:19;102383.53;;;18.27;56.36
77161;BME280;66135;0.000;0.000;2023-03-03T17:24:09;102384.69;;;18.25;55.55
77161;BME280;66135;0.000;0.000;2023-03-03T17:29:47;102391.53;;;18.19;55.67
77161;BME280;66135;0.000;0.000;2023-03-03T17:35:05;102395.09;;;18.20;55.98
77161;BME280;66135;0.000;0.000;2023-03-03T17:38:01;102395.94;;;18.20;56.05
77161;BME280;66135;0.000;0.000;2023-03-03T17:43:38;102405.09;;;18.19;56.14
77161;BME280;66135;0.000;0.000;2023-03-03T17:46:19;102404.81;;;18.22;55.81
77161;BME280;66135;0.000;0.000;2023-03-03T18:02:47;102428.91;;;18.16;55.90
77161;BME280;66135;0.000;0.000;2023-03-03T18:08:00;102429.19;;;18.13;55.61
77161;BME280;66135;0.000;0.000;2023-03-03T18:10:45;102434.63;;;18.13;55.48
77161;BME280;66135;0.000;0.000;2023-03-03T18:19:26;102438.44;;;18.10;55.78
77161;BME280;66135;0.000;0.000;2023-03-03T18:22:05;102438.91;;;18.15;55.79
77161;BME280;66135;0.000;0.000;2023-03-03T18:25:07;102436.31;;;18.14;55.92